sensor_id;sensor_type;location;lat;lon;timestamp;P1;durP1;ratioP1;P2;durP2;ratioP2
38264;SDS011;24062;47.480;8.768;2024-02-04T00:00:35;2.73;;;1.90;;
38264;SDS011;24062;47.480;8.768;2024-02-04T00:03:02;3.20;;;2.00;;
38264;SDS011;24062;47.480;8.768;2024-02-04T00:05:30;2.43;;;1.60;;
38264;SDS011;24062;47.480;8.768;2024-02-04T00:07:57;3.23;;;1.80;;
38264;SDS011;24062;47.480;8.768;2024-02-04T00:10:24;2.53;;;2.20;;
38264;SDS011;24062;47.480;8.768;2024-02-04T00:12:51;3.57;;;1.90;;
38264;SDS011;24062;47.480;8.768;2024-02-04T00:15:18;2.10;;;1.63;;
38264;SDS011;24062;47.480;8.768;2024-02-04T00:17:45;3.30;;;2.23;;
38264;SDS011;24062;47.480;8.768;2024-02-04T00:20:12;2.33;;;1.90;;
38264;SDS011;24062;47.480;8.768;2024-02-04T00:22:40;2.20;;;1.70;;
38264;SDS011;24062;47.480;8.768;2024-02-04T00:25:07;3.53;;;1.53;;
38264;SDS011;24062;47.480;8.768;2024-02-04T00:27:36;2.53;;;2.00;;
38264;SDS011;24062;47.480;8.768;2024-02-04T00:30:04;2.53;;;1.80;;
38264;SDS011;24062;47.480;8.768;2024-02-04T00:32:32;2.93;;;2.03;;
38264;SDS011;24062;47.480;8.768;2024-02-04T00:34:59;4.53;;;1.57;;
38264;SDS011;24062;47.480;8.768;2024-02-04T00:37:26;3.60;;;1.83;;
38264;SDS011;24062;47.480;8.768;2024-02-04T00:39:54;2.63;;;2.00;;
38264;SDS011;24062;47.480;8.768;2024-02-04T00:42:21;5.60;;;2.00;;
38264;SDS011;24062;47.480;8.768;2024-02-04T00:44:48;2.20;;;1.60;;
38264;SDS011;24062;47.480;8.768;2024-02-04T00:47:14;5.10;;;1.50;;
38264;SDS011;24062;47.480;8.768;2024-02-04T00:49:41;2.53;;;1.87;;
38264;SDS011;24062;47.480;8.768;2024-02-04T00:52:08;1.90;;;1.40;;
38264;SDS011;24062;47.480;8.768;2024-02-04T00:54:35;2.00;;;1.70;;
38264;SDS011;24062;47.480;8.768;2024-02-04T00:57:03;2.43;;;1.80;;
38264;SDS011;24062;47.480;8.768;2024-02-04T00:59:30;2.80;;;2.07;;
38264;SDS011;24062;47.480;8.768;2024-02-04T01:01:57;2.10;;;1.47;;
38264;SDS011;24062;47.480;8.768;2024-02-04T01:04:24;3.63;;;2.20;;
38264;SDS011;24062;47.480;8.768;2024-02-04T01:06:51;2.47;;;1.80;;
38264;SDS011;24062;47.480;8.768;2024-02-04T01:09:18;2.80;;;1.80;;
38264;SDS011;24062;47.480;8.768;2024-02-04T01:11:45;2.20;;;1.63;;
38264;SDS011;24062;47.480;8.768;2024-02-04T01:14:13;2.63;;;1.50;;
38264;SDS011;24062;47.480;8.768;2024-02-04T01:16:40;2.70;;;1.93;;
38264;SDS011;24062;47.480;8.768;2024-02-04T01:19:07;2.33;;;1.43;;
38264;SDS011;24062;47.480;8.768;2024-02-04T01:21:34;2.67;;;1.90;;
38264;SDS011;24062;47.480;8.768;2024-02-04T01:24:00;2.40;;;1.77;;
38264;SDS011;24062;47.480;8.768;2024-02-04T01:26:27;1.77;;;1.30;;
38264;SDS011;24062;47.480;8.768;2024-02-04T01:28:54;2.30;;;1.63;;
38264;SDS011;24062;47.480;8.768;2024-02-04T01:31:22;2.60;;;1.53;;
38264;SDS011;24062;47.480;8.768;2024-02-04T01:33:49;2.30;;;1.60;;
38264;SDS011;24062;47.480;8.768;2024-02-04T01:36:16;2.10;;;1.70;;
38264;SDS011;24062;47.480;8.768;2024-02-04T01:38:43;4.00;;;1.63;;
38264;SDS011;24062;47.480;8.768;2024-02-04T01:41:10;1.90;;;1.40;;
38264;SDS011;24062;47.480;8.768;2024-02-04T01:43:37;2.30;;;1.60;;
38264;SDS011;24062;47.480;8.768;2024-02-04T01:46:03;2.00;;;1.40;;
38264;SDS011;24062;47.480;8.768;2024-02-04T01:48:33;1.80;;;1.23;;
38264;SDS011;24062;47.480;8.768;2024-02-04T01:50:59;3.00;;;2.17;;
38264;SDS011;24062;47.480;8.768;2024-02-04T01:53:28;4.73;;;2.30;;
38264;SDS011;24062;47.480;8.768;2024-02-04T01:55:58;1.70;;;1.20;;
38264;SDS011;24062;47.480;8.768;2024-02-04T01:58:25;2.10;;;1.43;;
38264;SDS011;24062;47.480;8.768;2024-02-04T02:00:52;2.87;;;1.40;;
38264;SDS011;24062;47.480;8.768;2024-02-04T02:03:19;1.80;;;1.10;;
38264;SDS011;24062;47.480;8.768;2024-02-04T02:05:49;1.90;;;1.40;;
38264;SDS011;24062;47.480;8.768;2024-02-04T02:08:16;2.30;;;1.80;;
38264;SDS011;24062;47.480;8.768;2024-02-04T02:10:43;2.20;;;1.67;;
38264;SDS011;24062;47.480;8.768;2024-02-04T02:13:15;2.10;;;1.50;;
38264;SDS011;24062;47.480;8.768;2024-02-04T02:15:48;1.73;;;1.23;;
38264;SDS011;24062;47.480;8.768;2024-02-04T02:18:18;1.80;;;1.20;;
38264;SDS011;24062;47.480;8.768;2024-02-04T02:20:55;2.07;;;1.50;;
38264;SDS011;24062;47.480;8.768;2024-02-04T02:23:40;2.03;;;1.60;;
38264;SDS011;24062;47.480;8.768;2024-02-04T02:26:18;2.30;;;1.50;;
38264;SDS011;24062;47.480;8.768;2024-02-04T02:28:46;2.40;;;1.50;;
38264;SDS011;24062;47.480;8.768;2024-02-04T02:31:13;1.93;;;1.50;;
38264;SDS011;24062;47.480;8.768;2024-02-04T02:33:40;2.23;;;1.50;;
38264;SDS011;24062;47.480;8.768;2024-02-04T02:36:09;1.90;;;1.23;;
38264;SDS011;24062;47.480;8.768;2024-02-04T02:38:44;2.00;;;1.17;;
38264;SDS011;24062;47.480;8.768;2024-02-04T02:41:16;2.00;;;1.33;;
38264;SDS011;24062;47.480;8.768;2024-02-04T02:43:46;2.50;;;1.43;;
38264;SDS011;24062;47.480;8.768;2024-02-04T02:46:16;1.80;;;1.30;;
38264;SDS011;24062;47.480;8.768;2024-02-04T02:48:44;2.10;;;1.40;;
38264;SDS011;24062;47.480;8.768;2024-02-04T02:51:11;2.07;;;1.40;;
38264;SDS011;24062;47.480;8.768;2024-02-04T02:53:38;2.53;;;1.30;;
38264;SDS011;24062;47.480;8.768;2024-02-04T02:56:05;1.90;;;1.50;;
38264;SDS011;24062;47.480;8.768;2024-02-04T02:58:34;1.50;;;1.00;;
38264;SDS011;24062;47.480;8.768;2024-02-04T03:01:00;1.70;;;0.93;;
38264;SDS011;24062;47.480;8.768;2024-02-04T03:03:28;1.90;;;1.30;;
38264;SDS011;24062;47.480;8.768;2024-02-04T03:05:54;1.80;;;1.10;;
38264;SDS011;24062;47.480;8.768;2024-02-04T03:08:21;1.60;;;1.10;;
38264;SDS011;24062;47.480;8.768;2024-02-04T03:10:48;1.87;;;1.20;;
38264;SDS011;24062;47.480;8.768;2024-02-04T03:13:15;1.57;;;0.97;;
38264;SDS011;24062;47.480;8.768;2024-02-04T03:15:43;2.03;;;1.20;;
38264;SDS011;24062;47.480;8.768;2024-02-04T03:18:10;1.70;;;1.10;;
38264;SDS011;24062;47.480;8.768;2024-02-04T03:20:37;1.90;;;1.50;;
38264;SDS011;24062;47.480;8.768;2024-02-04T03:23:04;2.53;;;1.17;;
38264;SDS011;24062;47.480;8.768;2024-02-04T03:25:31;1.80;;;1.00;;
38264;SDS011;24062;47.480;8.768;2024-02-04T03:27:58;1.47;;;1.00;;
38264;SDS011;24062;47.480;8.768;2024-02-04T03:30:25;1.70;;;1.10;;
38264;SDS011;24062;47.480;8.768;2024-02-04T03:32:53;1.40;;;0.90;;
38264;SDS011;24062;47.480;8.768;2024-02-04T03:35:20;1.70;;;1.00;;
38264;SDS011;24062;47.480;8.768;2024-02-04T03:37:47;1.50;;;0.83;;
38264;SDS011;24062;47.480;8.768;2024-02-04T03:40:14;1.50;;;0.90;;
38264;SDS011;24062;47.480;8.768;2024-02-04T03:42:41;1.60;;;0.90;;
38264;SDS011;24062;47.480;8.768;2024-02-04T03:45:08;1.60;;;1.03;;
38264;SDS011;24062;47.480;8.768;2024-02-04T03:47:35;1.50;;;0.80;;
38264;SDS011;24062;47.480;8.768;2024-02-04T03:50:04;1.60;;;0.90;;
38264;SDS011;24062;47.480;8.768;2024-02-04T03:52:31;1.47;;;0.73;;
38264;SDS011;24062;47.480;8.768;2024-02-04T03:54:58;1.50;;;0.90;;
38264;SDS011;24062;47.480;8.768;2024-02-04T03:57:25;2.00;;;0.80;;
38264;SDS011;24062;47.480;8.768;2024-02-04T03:59:52;1.90;;;1.20;;
38264;SDS011;24062;47.480;8.768;2024-02-04T04:02:19;2.80;;;1.40;;
38264;SDS011;24062;47.480;8.768;2024-02-04T04:04:46;1.87;;;1.13;;
38264;SDS011;24062;47.480;8.768;2024-02-04T04:07:14;1.50;;;0.80;;
38264;SDS011;24062;47.480;8.768;2024-02-04T04:09:41;1.60;;;1.17;;
38264;SDS011;24062;47.480;8.768;2024-02-04T04:12:08;1.60;;;0.97;;
38264;SDS011;24062;47.480;8.768;2024-02-04T04:14:35;1.50;;;0.70;;
38264;SDS011;24062;47.480;8.768;2024-02-04T04:17:02;1.70;;;0.93;;
38264;SDS011;24062;47.480;8.768;2024-02-04T04:19:29;1.60;;;0.90;;
38264;SDS011;24062;47.480;8.768;2024-02-04T04:21:58;1.47;;;0.83;;
38264;SDS011;24062;47.480;8.768;2024-02-04T04:24:27;1.57;;;0.93;;
38264;SDS011;24062;47.480;8.768;2024-02-04T04:26:54;1.60;;;0.90;;
38264;SDS011;24062;47.480;8.768;2024-02-04T04:29:21;1.80;;;0.90;;
38264;SDS011;24062;47.480;8.768;2024-02-04T04:31:48;1.57;;;0.80;;
38264;SDS011;24062;47.480;8.768;2024-02-04T04:34:15;1.73;;;0.80;;
38264;SDS011;24062;47.480;8.768;2024-02-04T04:36:43;1.70;;;0.93;;
38264;SDS011;24062;47.480;8.768;2024-02-04T04:39:10;2.03;;;0.70;;
38264;SDS011;24062;47.480;8.768;2024-02-04T04:41:39;2.93;;;0.83;;
38264;SDS011;24062;47.480;8.768;2024-02-04T04:44:06;1.53;;;0.83;;
38264;SDS011;24062;47.480;8.768;2024-02-04T04:46:33;3.87;;;0.80;;
38264;SDS011;24062;47.480;8.768;2024-02-04T04:49:03;1.77;;;0.97;;
38264;SDS011;24062;47.480;8.768;2024-02-04T04:51:30;1.47;;;0.80;;
38264;SDS011;24062;47.480;8.768;2024-02-04T04:53:57;1.50;;;0.70;;
38264;SDS011;24062;47.480;8.768;2024-02-04T04:56:24;1.33;;;0.70;;
38264;SDS011;24062;47.480;8.768;2024-02-04T04:58:52;1.40;;;0.70;;
38264;SDS011;24062;47.480;8.768;2024-02-04T05:01:19;1.50;;;0.70;;
38264;SDS011;24062;47.480;8.768;2024-02-04T05:03:46;2.90;;;0.97;;
38264;SDS011;24062;47.480;8.768;2024-02-04T05:06:13;1.30;;;0.60;;
38264;SDS011;24062;47.480;8.768;2024-02-04T05:08:40;1.40;;;0.70;;
38264;SDS011;24062;47.480;8.768;2024-02-04T05:11:07;1.50;;;0.70;;
38264;SDS011;24062;47.480;8.768;2024-02-04T05:13:34;2.07;;;0.90;;
38264;SDS011;24062;47.480;8.768;2024-02-04T05:16:02;1.37;;;0.63;;
38264;SDS011;24062;47.480;8.768;2024-02-04T05:18:29;1.33;;;0.60;;
38264;SDS011;24062;47.480;8.768;2024-02-04T05:20:56;1.40;;;0.87;;
38264;SDS011;24062;47.480;8.768;2024-02-04T05:23:23;1.60;;;0.60;;
38264;SDS011;24062;47.480;8.768;2024-02-04T05:25:50;1.53;;;0.70;;
38264;SDS011;24062;47.480;8.768;2024-02-04T05:28:16;1.50;;;0.70;;
38264;SDS011;24062;47.480;8.768;2024-02-04T05:30:43;1.30;;;0.60;;
38264;SDS011;24062;47.480;8.768;2024-02-04T05:33:14;1.60;;;0.70;;
38264;SDS011;24062;47.480;8.768;2024-02-04T05:35:41;1.50;;;0.80;;
38264;SDS011;24062;47.480;8.768;2024-02-04T05:38:09;1.50;;;0.87;;
38264;SDS011;24062;47.480;8.768;2024-02-04T05:40:36;1.43;;;0.80;;
38264;SDS011;24062;47.480;8.768;2024-02-04T05:43:03;1.43;;;0.63;;
38264;SDS011;24062;47.480;8.768;2024-02-04T05:45:32;1.77;;;0.90;;
38264;SDS011;24062;47.480;8.768;2024-02-04T05:47:59;1.40;;;0.70;;
38264;SDS011;24062;47.480;8.768;2024-02-04T05:50:27;1.37;;;0.60;;
38264;SDS011;24062;47.480;8.768;2024-02-04T05:52:54;1.20;;;0.60;;
38264;SDS011;24062;47.480;8.768;2024-02-04T05:55:21;1.53;;;0.90;;
38264;SDS011;24062;47.480;8.768;2024-02-04T05:57:48;1.40;;;0.80;;
38264;SDS011;24062;47.480;8.768;2024-02-04T06:00:15;1.60;;;0.80;;
38264;SDS011;24062;47.480;8.768;2024-02-04T06:02:43;1.50;;;0.63;;
38264;SDS011;24062;47.480;8.768;2024-02-04T06:05:10;1.30;;;0.70;;
38264;SDS011;24062;47.480;8.768;2024-02-04T06:07:39;1.50;;;0.73;;
38264;SDS011;24062;47.480;8.768;2024-02-04T06:10:08;1.20;;;0.60;;
38264;SDS011;24062;47.480;8.768;2024-02-04T06:12:36;1.30;;;0.50;;
38264;SDS011;24062;47.480;8.768;2024-02-04T06:15:06;1.30;;;0.60;;
38264;SDS011;24062;47.480;8.768;2024-02-04T06:17:37;1.60;;;0.80;;
38264;SDS011;24062;47.480;8.768;2024-02-04T06:20:05;1.37;;;0.60;;
38264;SDS011;24062;47.480;8.768;2024-02-04T06:22:33;1.50;;;0.70;;
38264;SDS011;24062;47.480;8.768;2024-02-04T06:25:02;1.53;;;0.83;;
38264;SDS011;24062;47.480;8.768;2024-02-04T06:27:29;1.93;;;0.60;;
38264;SDS011;24062;47.480;8.768;2024-02-04T06:29:56;2.07;;;0.60;;
38264;SDS011;24062;47.480;8.768;2024-02-04T06:32:23;1.30;;;0.67;;
38264;SDS011;24062;47.480;8.768;2024-02-04T06:34:50;1.30;;;0.60;;
38264;SDS011;24062;47.480;8.768;2024-02-04T06:37:19;1.80;;;0.60;;
38264;SDS011;24062;47.480;8.768;2024-02-04T06:39:46;1.50;;;0.70;;
38264;SDS011;24062;47.480;8.768;2024-02-04T06:42:14;1.30;;;0.60;;
38264;SDS011;24062;47.480;8.768;2024-02-04T06:44:42;1.97;;;0.70;;
38264;SDS011;24062;47.480;8.768;2024-02-04T06:47:09;1.43;;;0.80;;
38264;SDS011;24062;47.480;8.768;2024-02-04T06:49:37;1.40;;;0.67;;
38264;SDS011;24062;47.480;8.768;2024-02-04T06:52:04;1.50;;;0.70;;
38264;SDS011;24062;47.480;8.768;2024-02-04T06:54:31;2.00;;;0.70;;
38264;SDS011;24062;47.480;8.768;2024-02-04T06:56:58;1.67;;;0.70;;
38264;SDS011;24062;47.480;8.768;2024-02-04T06:59:26;1.20;;;0.50;;
38264;SDS011;24062;47.480;8.768;2024-02-04T07:01:53;1.70;;;0.70;;
38264;SDS011;24062;47.480;8.768;2024-02-04T07:04:20;1.73;;;0.70;;
38264;SDS011;24062;47.480;8.768;2024-02-04T07:06:49;1.60;;;0.90;;
38264;SDS011;24062;47.480;8.768;2024-02-04T07:09:16;1.70;;;0.70;;
38264;SDS011;24062;47.480;8.768;2024-02-04T07:11:43;1.30;;;0.50;;
38264;SDS011;24062;47.480;8.768;2024-02-04T07:14:09;2.17;;;0.77;;
38264;SDS011;24062;47.480;8.768;2024-02-04T07:16:38;3.00;;;0.73;;
38264;SDS011;24062;47.480;8.768;2024-02-04T07:19:05;1.70;;;0.77;;
38264;SDS011;24062;47.480;8.768;2024-02-04T07:21:31;2.80;;;0.80;;
38264;SDS011;24062;47.480;8.768;2024-02-04T07:23:58;2.00;;;0.60;;
38264;SDS011;24062;47.480;8.768;2024-02-04T07:26:25;4.70;;;0.70;;
38264;SDS011;24062;47.480;8.768;2024-02-04T07:28:52;1.40;;;0.60;;
38264;SDS011;24062;47.480;8.768;2024-02-04T07:31:19;2.73;;;0.90;;
38264;SDS011;24062;47.480;8.768;2024-02-04T07:33:48;2.07;;;0.80;;
38264;SDS011;24062;47.480;8.768;2024-02-04T07:36:15;1.40;;;0.70;;
38264;SDS011;24062;47.480;8.768;2024-02-04T07:38:41;1.70;;;0.90;;
38264;SDS011;24062;47.480;8.768;2024-02-04T07:41:08;1.40;;;0.60;;
38264;SDS011;24062;47.480;8.768;2024-02-04T07:43:36;1.30;;;0.60;;
38264;SDS011;24062;47.480;8.768;2024-02-04T07:46:03;1.30;;;0.53;;
38264;SDS011;24062;47.480;8.768;2024-02-04T07:48:30;1.90;;;0.97;;
38264;SDS011;24062;47.480;8.768;2024-02-04T07:50:58;1.57;;;0.70;;
38264;SDS011;24062;47.480;8.768;2024-02-04T07:53:26;1.40;;;0.60;;
38264;SDS011;24062;47.480;8.768;2024-02-04T07:55:53;1.47;;;0.60;;
38264;SDS011;24062;47.480;8.768;2024-02-04T07:58:19;1.50;;;0.63;;
38264;SDS011;24062;47.480;8.768;2024-02-04T08:00:47;1.60;;;0.60;;
38264;SDS011;24062;47.480;8.768;2024-02-04T08:03:14;1.60;;;0.60;;
38264;SDS011;24062;47.480;8.768;2024-02-04T08:05:41;1.23;;;0.53;;
38264;SDS011;24062;47.480;8.768;2024-02-04T08:08:09;1.90;;;0.70;;
38264;SDS011;24062;47.480;8.768;2024-02-04T08:10:36;1.80;;;0.73;;
38264;SDS011;24062;47.480;8.768;2024-02-04T08:13:03;2.13;;;0.63;;
38264;SDS011;24062;47.480;8.768;2024-02-04T08:15:30;1.47;;;0.60;;
38264;SDS011;24062;47.480;8.768;2024-02-04T08:17:56;1.60;;;0.70;;
38264;SDS011;24062;47.480;8.768;2024-02-04T08:20:23;1.40;;;0.70;;
38264;SDS011;24062;47.480;8.768;2024-02-04T08:22:51;1.97;;;0.80;;
38264;SDS011;24062;47.480;8.768;2024-02-04T08:25:19;1.57;;;0.77;;
38264;SDS011;24062;47.480;8.768;2024-02-04T08:27:46;2.93;;;0.80;;
38264;SDS011;24062;47.480;8.768;2024-02-04T08:30:13;2.27;;;0.67;;
38264;SDS011;24062;47.480;8.768;2024-02-04T08:32:42;2.07;;;0.60;;
38264;SDS011;24062;47.480;8.768;2024-02-04T08:35:10;1.90;;;0.60;;
38264;SDS011;24062;47.480;8.768;2024-02-04T08:37:37;2.30;;;1.00;;
38264;SDS011;24062;47.480;8.768;2024-02-04T08:40:05;5.63;;;0.80;;
38264;SDS011;24062;47.480;8.768;2024-02-04T08:42:34;1.63;;;0.80;;
38264;SDS011;24062;47.480;8.768;2024-02-04T08:45:01;2.67;;;0.80;;
38264;SDS011;24062;47.480;8.768;2024-02-04T08:47:29;1.90;;;0.70;;
38264;SDS011;24062;47.480;8.768;2024-02-04T08:49:55;3.70;;;0.80;;
38264;SDS011;24062;47.480;8.768;2024-02-04T08:52:23;3.00;;;0.87;;
38264;SDS011;24062;47.480;8.768;2024-02-04T08:54:50;1.80;;;0.80;;
38264;SDS011;24062;47.480;8.768;2024-02-04T08:57:17;2.50;;;0.90;;
38264;SDS011;24062;47.480;8.768;2024-02-04T08:59:45;1.50;;;0.70;;
38264;SDS011;24062;47.480;8.768;2024-02-04T09:02:12;2.50;;;0.90;;
38264;SDS011;24062;47.480;8.768;2024-02-04T09:04:39;2.03;;;1.00;;
38264;SDS011;24062;47.480;8.768;2024-02-04T09:07:06;2.50;;;0.90;;
38264;SDS011;24062;47.480;8.768;2024-02-04T09:09:33;1.80;;;0.70;;
38264;SDS011;24062;47.480;8.768;2024-02-04T09:12:00;3.40;;;0.97;;
38264;SDS011;24062;47.480;8.768;2024-02-04T09:14:27;1.87;;;0.80;;
38264;SDS011;24062;47.480;8.768;2024-02-04T09:16:56;1.80;;;0.77;;
38264;SDS011;24062;47.480;8.768;2024-02-04T09:19:22;2.93;;;0.70;;
38264;SDS011;24062;47.480;8.768;2024-02-04T09:21:50;1.50;;;0.80;;
38264;SDS011;24062;47.480;8.768;2024-02-04T09:24:17;2.93;;;0.80;;
38264;SDS011;24062;47.480;8.768;2024-02-04T09:26:43;1.80;;;0.90;;
38264;SDS011;24062;47.480;8.768;2024-02-04T09:29:10;1.73;;;0.80;;
38264;SDS011;24062;47.480;8.768;2024-02-04T09:31:37;2.10;;;0.93;;
38264;SDS011;24062;47.480;8.768;2024-02-04T09:34:05;1.93;;;0.97;;
38264;SDS011;24062;47.480;8.768;2024-02-04T09:36:32;2.03;;;1.00;;
38264;SDS011;24062;47.480;8.768;2024-02-04T09:38:59;3.60;;;1.00;;
38264;SDS011;24062;47.480;8.768;2024-02-04T09:41:26;1.87;;;0.80;;
38264;SDS011;24062;47.480;8.768;2024-02-04T09:43:53;1.90;;;0.87;;
38264;SDS011;24062;47.480;8.768;2024-02-04T09:46:21;5.17;;;0.73;;
38264;SDS011;24062;47.480;8.768;2024-02-04T09:48:49;2.27;;;1.00;;
38264;SDS011;24062;47.480;8.768;2024-02-04T09:51:18;2.27;;;1.30;;
38264;SDS011;24062;47.480;8.768;2024-02-04T09:53:45;2.00;;;0.70;;
38264;SDS011;24062;47.480;8.768;2024-02-04T09:56:18;3.60;;;0.93;;
38264;SDS011;24062;47.480;8.768;2024-02-04T09:58:46;3.00;;;0.90;;
38264;SDS011;24062;47.480;8.768;2024-02-04T10:01:12;1.37;;;0.80;;
38264;SDS011;24062;47.480;8.768;2024-02-04T10:03:40;2.87;;;0.90;;
38264;SDS011;24062;47.480;8.768;2024-02-04T10:06:07;2.33;;;0.60;;
38264;SDS011;24062;47.480;8.768;2024-02-04T10:08:36;1.80;;;0.73;;
38264;SDS011;24062;47.480;8.768;2024-02-04T10:11:04;1.63;;;0.90;;
38264;SDS011;24062;47.480;8.768;2024-02-04T10:13:40;1.90;;;0.83;;
38264;SDS011;24062;47.480;8.768;2024-02-04T10:16:08;2.33;;;0.90;;
38264;SDS011;24062;47.480;8.768;2024-02-04T10:18:35;1.70;;;1.00;;
38264;SDS011;24062;47.480;8.768;2024-02-04T10:21:02;1.93;;;0.90;;
38264;SDS011;24062;47.480;8.768;2024-02-04T10:23:29;4.57;;;0.90;;
38264;SDS011;24062;47.480;8.768;2024-02-04T10:25:58;2.33;;;1.27;;
38264;SDS011;24062;47.480;8.768;2024-02-04T10:28:25;3.60;;;1.10;;
38264;SDS011;24062;47.480;8.768;2024-02-04T10:30:52;1.70;;;0.93;;
38264;SDS011;24062;47.480;8.768;2024-02-04T10:33:20;2.23;;;0.90;;
38264;SDS011;24062;47.480;8.768;2024-02-04T10:35:46;2.40;;;0.90;;
38264;SDS011;24062;47.480;8.768;2024-02-04T10:38:13;1.80;;;0.80;;
38264;SDS011;24062;47.480;8.768;2024-02-04T10:40:40;2.10;;;0.87;;
38264;SDS011;24062;47.480;8.768;2024-02-04T10:43:09;3.40;;;1.00;;
38264;SDS011;24062;47.480;8.768;2024-02-04T10:45:37;1.97;;;0.90;;
38264;SDS011;24062;47.480;8.768;2024-02-04T10:48:07;2.00;;;0.90;;
38264;SDS011;24062;47.480;8.768;2024-02-04T10:50:36;1.77;;;1.00;;
38264;SDS011;24062;47.480;8.768;2024-02-04T10:53:05;1.70;;;0.73;;
38264;SDS011;24062;47.480;8.768;2024-02-04T10:55:33;1.70;;;0.90;;
38264;SDS011;24062;47.480;8.768;2024-02-04T10:58:08;1.70;;;0.70;;
38264;SDS011;24062;47.480;8.768;2024-02-04T11:00:37;1.90;;;1.00;;
38264;SDS011;24062;47.480;8.768;2024-02-04T11:03:06;1.73;;;1.00;;
38264;SDS011;24062;47.480;8.768;2024-02-04T11:05:33;2.10;;;0.90;;
38264;SDS011;24062;47.480;8.768;2024-02-04T11:08:03;1.70;;;1.10;;
38264;SDS011;24062;47.480;8.768;2024-02-04T11:10:31;1.83;;;0.80;;
38264;SDS011;24062;47.480;8.768;2024-02-04T11:12:59;2.20;;;0.90;;
38264;SDS011;24062;47.480;8.768;2024-02-04T11:15:37;2.10;;;0.90;;
38264;SDS011;24062;47.480;8.768;2024-02-04T11:21:09;5.00;;;1.83;;
38264;SDS011;24062;47.480;8.768;2024-02-04T11:24:01;1.80;;;0.90;;
38264;SDS011;24062;47.480;8.768;2024-02-04T11:26:40;2.83;;;0.73;;
38264;SDS011;24062;47.480;8.768;2024-02-04T11:29:08;2.07;;;0.70;;
38264;SDS011;24062;47.480;8.768;2024-02-04T11:31:39;2.00;;;0.87;;
38264;SDS011;24062;47.480;8.768;2024-02-04T11:34:06;1.90;;;0.90;;
38264;SDS011;24062;47.480;8.768;2024-02-04T11:36:37;4.43;;;1.00;;
38264;SDS011;24062;47.480;8.768;2024-02-04T11:39:11;2.50;;;1.10;;
38264;SDS011;24062;47.480;8.768;2024-02-04T11:41:44;1.60;;;0.90;;
38264;SDS011;24062;47.480;8.768;2024-02-04T11:44:12;1.67;;;1.00;;
38264;SDS011;24062;47.480;8.768;2024-02-04T11:46:45;1.80;;;0.90;;
38264;SDS011;24062;47.480;8.768;2024-02-04T11:49:16;1.97;;;1.10;;
38264;SDS011;24062;47.480;8.768;2024-02-04T11:51:44;1.60;;;0.90;;
38264;SDS011;24062;47.480;8.768;2024-02-04T11:54:14;2.07;;;1.13;;
38264;SDS011;24062;47.480;8.768;2024-02-04T11:56:41;2.43;;;1.30;;
38264;SDS011;24062;47.480;8.768;2024-02-04T11:59:09;3.40;;;1.23;;
38264;SDS011;24062;47.480;8.768;2024-02-04T12:01:37;2.57;;;1.30;;
38264;SDS011;24062;47.480;8.768;2024-02-04T12:04:12;2.10;;;1.20;;
38264;SDS011;24062;47.480;8.768;2024-02-04T12:06:40;1.90;;;1.03;;
38264;SDS011;24062;47.480;8.768;2024-02-04T12:09:07;2.23;;;1.37;;
38264;SDS011;24062;47.480;8.768;2024-02-04T12:11:35;2.37;;;1.60;;
38264;SDS011;24062;47.480;8.768;2024-02-04T12:14:03;2.30;;;1.43;;
38264;SDS011;24062;47.480;8.768;2024-02-04T12:16:30;2.43;;;1.47;;
38264;SDS011;24062;47.480;8.768;2024-02-04T12:18:58;3.10;;;1.50;;
38264;SDS011;24062;47.480;8.768;2024-02-04T12:21:27;1.80;;;1.20;;
38264;SDS011;24062;47.480;8.768;2024-02-04T12:23:54;1.80;;;1.30;;
38264;SDS011;24062;47.480;8.768;2024-02-04T12:26:21;2.53;;;1.90;;
38264;SDS011;24062;47.480;8.768;2024-02-04T12:28:48;3.10;;;1.63;;
38264;SDS011;24062;47.480;8.768;2024-02-04T12:31:17;2.70;;;1.40;;
38264;SDS011;24062;47.480;8.768;2024-02-04T12:33:51;13.70;;;2.50;;
38264;SDS011;24062;47.480;8.768;2024-02-04T12:36:20;2.43;;;1.77;;
38264;SDS011;24062;47.480;8.768;2024-02-04T12:38:51;3.37;;;1.73;;
38264;SDS011;24062;47.480;8.768;2024-02-04T12:41:19;3.83;;;2.37;;
38264;SDS011;24062;47.480;8.768;2024-02-04T12:43:49;2.67;;;1.87;;
38264;SDS011;24062;47.480;8.768;2024-02-04T12:46:17;2.20;;;1.90;;
38264;SDS011;24062;47.480;8.768;2024-02-04T12:48:44;3.17;;;1.60;;
38264;SDS011;24062;47.480;8.768;2024-02-04T12:51:22;2.60;;;2.00;;
38264;SDS011;24062;47.480;8.768;2024-02-04T12:53:51;4.73;;;1.60;;
38264;SDS011;24062;47.480;8.768;2024-02-04T12:56:38;2.43;;;1.73;;
38264;SDS011;24062;47.480;8.768;2024-02-04T12:59:06;3.17;;;2.00;;
38264;SDS011;24062;47.480;8.768;2024-02-04T13:01:34;1.90;;;1.27;;
38264;SDS011;24062;47.480;8.768;2024-02-04T13:04:01;3.60;;;1.40;;
38264;SDS011;24062;47.480;8.768;2024-02-04T13:06:28;2.60;;;1.80;;
38264;SDS011;24062;47.480;8.768;2024-02-04T13:08:56;2.57;;;1.50;;
38264;SDS011;24062;47.480;8.768;2024-02-04T13:11:24;2.33;;;1.60;;
38264;SDS011;24062;47.480;8.768;2024-02-04T13:13:51;2.40;;;1.80;;
38264;SDS011;24062;47.480;8.768;2024-02-04T13:16:18;2.07;;;1.43;;
38264;SDS011;24062;47.480;8.768;2024-02-04T13:18:51;4.47;;;2.33;;
38264;SDS011;24062;47.480;8.768;2024-02-04T13:21:18;3.40;;;1.27;;
38264;SDS011;24062;47.480;8.768;2024-02-04T13:23:47;2.20;;;1.27;;
38264;SDS011;24062;47.480;8.768;2024-02-04T13:26:16;2.43;;;1.73;;
38264;SDS011;24062;47.480;8.768;2024-02-04T13:28:43;2.40;;;1.80;;
38264;SDS011;24062;47.480;8.768;2024-02-04T13:31:10;1.80;;;1.30;;
38264;SDS011;24062;47.480;8.768;2024-02-04T13:33:37;2.27;;;1.50;;
38264;SDS011;24062;47.480;8.768;2024-02-04T13:36:05;2.10;;;1.50;;
38264;SDS011;24062;47.480;8.768;2024-02-04T13:38:33;2.10;;;1.57;;
38264;SDS011;24062;47.480;8.768;2024-02-04T13:41:00;4.07;;;1.77;;
38264;SDS011;24062;47.480;8.768;2024-02-04T13:43:28;1.83;;;1.40;;
38264;SDS011;24062;47.480;8.768;2024-02-04T13:45:55;2.57;;;1.63;;
38264;SDS011;24062;47.480;8.768;2024-02-04T13:48:22;2.87;;;1.80;;
38264;SDS011;24062;47.480;8.768;2024-02-04T13:50:50;2.43;;;1.43;;
38264;SDS011;24062;47.480;8.768;2024-02-04T13:53:19;2.37;;;1.60;;
38264;SDS011;24062;47.480;8.768;2024-02-04T13:55:46;2.80;;;1.70;;
38264;SDS011;24062;47.480;8.768;2024-02-04T13:58:13;2.97;;;1.40;;
38264;SDS011;24062;47.480;8.768;2024-02-04T14:00:41;3.67;;;1.73;;
38264;SDS011;24062;47.480;8.768;2024-02-04T14:03:08;1.70;;;1.20;;
38264;SDS011;24062;47.480;8.768;2024-02-04T14:05:38;2.23;;;1.30;;
38264;SDS011;24062;47.480;8.768;2024-02-04T14:08:05;2.10;;;1.50;;
38264;SDS011;24062;47.480;8.768;2024-02-04T14:10:32;3.00;;;1.33;;
38264;SDS011;24062;47.480;8.768;2024-02-04T14:12:59;2.87;;;1.57;;
38264;SDS011;24062;47.480;8.768;2024-02-04T14:15:26;3.07;;;1.50;;
38264;SDS011;24062;47.480;8.768;2024-02-04T14:17:55;2.97;;;1.53;;
38264;SDS011;24062;47.480;8.768;2024-02-04T14:20:22;3.13;;;1.40;;
38264;SDS011;24062;47.480;8.768;2024-02-04T14:22:49;1.80;;;1.20;;
38264;SDS011;24062;47.480;8.768;2024-02-04T14:25:16;3.30;;;1.37;;
38264;SDS011;24062;47.480;8.768;2024-02-04T14:27:44;3.47;;;1.63;;
38264;SDS011;24062;47.480;8.768;2024-02-04T14:30:11;1.93;;;1.40;;
38264;SDS011;24062;47.480;8.768;2024-02-04T14:32:39;2.00;;;1.40;;
38264;SDS011;24062;47.480;8.768;2024-02-04T14:35:07;1.90;;;1.43;;
38264;SDS011;24062;47.480;8.768;2024-02-04T14:37:35;2.00;;;1.20;;
38264;SDS011;24062;47.480;8.768;2024-02-04T14:40:02;3.50;;;1.40;;
38264;SDS011;24062;47.480;8.768;2024-02-04T14:42:31;2.07;;;1.33;;
38264;SDS011;24062;47.480;8.768;2024-02-04T14:44:58;4.30;;;1.70;;
38264;SDS011;24062;47.480;8.768;2024-02-04T14:47:26;2.10;;;1.10;;
38264;SDS011;24062;47.480;8.768;2024-02-04T14:49:53;2.37;;;1.50;;
38264;SDS011;24062;47.480;8.768;2024-02-04T14:52:21;2.37;;;1.27;;
38264;SDS011;24062;47.480;8.768;2024-02-04T14:54:48;3.10;;;1.50;;